createdAt,value
2023-02-11T00:00:09.509Z,32.03
2023-02-11T00:02:37.180Z,30.80
2023-02-11T00:05:08.221Z,30.40
2023-02-11T00:07:36.691Z,29.50
2023-02-11T00:10:07.220Z,36.77
2023-02-11T00:12:35.153Z,36.70
2023-02-11T00:15:02.948Z,33.87
2023-02-11T00:17:33.248Z,37.47
2023-02-11T00:20:00.852Z,32.37
2023-02-11T00:22:29.956Z,33.13
2023-02-11T00:24:57.625Z,29.93
2023-02-11T00:27:25.431Z,36.87
2023-02-11T00:29:53.242Z,36.50
2023-02-11T00:32:27.151Z,34.43
2023-02-11T00:34:56.424Z,28.90
2023-02-11T00:37:23.966Z,30.03
2023-02-11T00:39:51.686Z,36.30
2023-02-11T00:42:19.270Z,30.23
2023-02-11T00:44:46.881Z,32.93
2023-02-11T00:47:18.207Z,31.60
2023-02-11T00:49:46.041Z,32.13
2023-02-11T00:52:15.673Z,36.10
2023-02-11T00:54:43.465Z,32.67
2023-02-11T00:57:11.172Z,30.50
2023-02-11T00:59:38.911Z,32.20
2023-02-11T01:02:06.484Z,33.33
2023-02-11T01:04:35.052Z,33.50
2023-02-11T01:07:05.034Z,32.63
2023-02-11T01:09:33.901Z,35.70
2023-02-11T01:12:01.885Z,44.43
2023-02-11T01:14:29.587Z,40.10
2023-02-11T01:16:57.567Z,34.60
2023-02-11T01:19:25.460Z,33.23
2023-02-11T01:21:52.990Z,37.33
2023-02-11T01:24:20.509Z,41.13
2023-02-11T01:26:49.609Z,38.97
2023-02-11T01:29:17.473Z,34.67
2023-02-11T01:31:45.987Z,29.73
2023-02-11T01:34:13.934Z,30.20
2023-02-11T01:36:42.184Z,35.90
2023-02-11T01:39:10.405Z,35.13
2023-02-11T01:41:38.587Z,32.70
2023-02-11T01:44:31.435Z,34.73
2023-02-11T01:47:00.057Z,35.57
2023-02-11T01:49:29.734Z,30.63
2023-02-11T01:52:02.748Z,30.53
2023-02-11T01:54:51.377Z,35.27
2023-02-11T01:57:23.439Z,33.87
2023-02-11T02:00:05.863Z,29.37
2023-02-11T02:02:49.508Z,39.23
2023-02-11T02:05:25.081Z,31.37
2023-02-11T02:07:59.358Z,38.97
2023-02-11T02:10:29.390Z,30.30
2023-02-11T02:13:01.132Z,32.60
2023-02-11T02:15:33.039Z,31.97
2023-02-11T02:18:09.896Z,34.63
2023-02-11T02:21:11.079Z,34.90
2023-02-11T02:24:04.886Z,34.10
2023-02-11T02:27:04.833Z,33.33
2023-02-11T02:30:12.303Z,29.07
2023-02-11T02:33:20.558Z,31.77
2023-02-11T02:35:58.987Z,28.00
2023-02-11T02:38:32.187Z,34.10
2023-02-11T02:41:05.368Z,37.93
2023-02-11T02:43:39.366Z,34.07
2023-02-11T02:46:15.624Z,33.90
2023-02-11T02:48:48.637Z,37.97
2023-02-11T02:51:36.808Z,34.37
2023-02-11T02:54:31.197Z,35.00
2023-02-11T02:57:04.953Z,31.57
2023-02-11T02:59:46.616Z,32.27
2023-02-11T03:02:24.056Z,34.27
2023-02-11T03:05:00.592Z,27.73
2023-02-11T03:07:38.421Z,34.13
2023-02-11T03:10:13.998Z,35.20
2023-02-11T03:12:45.221Z,35.30
2023-02-11T03:15:16.206Z,33.10
2023-02-11T03:17:48.327Z,39.50
2023-02-11T03:20:22.486Z,36.27
2023-02-11T03:22:54.227Z,34.40
2023-02-11T03:25:28.032Z,37.07
2023-02-11T03:28:05.837Z,30.23
2023-02-11T03:30:39.958Z,35.40
2023-02-11T03:33:15.992Z,35.40
2023-02-11T03:35:52.060Z,36.60
2023-02-11T03:38:30.949Z,40.03
2023-02-11T03:40:59.968Z,33.23
2023-02-11T03:43:32.803Z,38.97
2023-02-11T03:46:03.359Z,38.63
2023-02-11T03:48:35.857Z,31.23
2023-02-11T03:51:08.632Z,31.90
2023-02-11T03:53:39.610Z,34.70
2023-02-11T03:56:11.313Z,32.07
2023-02-11T03:58:38.828Z,33.47
2023-02-11T04:01:09.867Z,30.73
2023-02-11T04:03:38.645Z,28.73
2023-02-11T04:06:08.007Z,34.37
2023-02-11T04:08:35.665Z,28.50
2023-02-11T04:11:03.463Z,31.10
2023-02-11T04:13:31.582Z,31.07
2023-02-11T04:15:59.233Z,29.00
2023-02-11T04:18:27.222Z,28.20
2023-02-11T04:20:55.087Z,28.67
2023-02-11T04:23:24.083Z,27.33
2023-02-11T04:25:52.073Z,31.57
2023-02-11T04:28:19.893Z,29.60
2023-02-11T04:30:51.002Z,36.70
2023-02-11T04:33:26.257Z,37.73
2023-02-11T04:35:55.292Z,27.53
2023-02-11T04:38:28.827Z,31.33
2023-02-11T04:40:56.476Z,30.93
2023-02-11T04:43:24.041Z,33.07
2023-02-11T04:45:54.192Z,35.23
2023-02-11T04:48:22.145Z,30.57
2023-02-11T04:50:49.728Z,27.43
2023-02-11T04:53:17.327Z,32.53
2023-02-11T04:55:46.594Z,28.90
2023-02-11T04:58:15.271Z,35.80
2023-02-11T05:00:42.908Z,33.23
2023-02-11T05:03:12.023Z,30.83
2023-02-11T05:05:40.278Z,27.30
2023-02-11T05:08:08.142Z,27.80
2023-02-11T05:10:35.845Z,30.80
2023-02-11T05:13:05.172Z,35.03
2023-02-11T05:15:32.779Z,26.67
2023-02-11T05:18:00.543Z,33.33
2023-02-11T05:20:28.572Z,32.47
2023-02-11T05:22:58.818Z,26.80
2023-02-11T05:25:27.847Z,26.20
2023-02-11T05:27:55.430Z,28.80
2023-02-11T05:30:34.003Z,31.77
2023-02-11T05:33:03.214Z,27.47
2023-02-11T05:35:38.370Z,26.53
2023-02-11T05:38:06.722Z,27.37
2023-02-11T05:40:34.381Z,33.90
2023-02-11T05:43:02.964Z,25.33
2023-02-11T05:45:32.237Z,26.37
2023-02-11T05:47:59.894Z,26.70
2023-02-11T05:50:27.676Z,29.50
2023-02-11T05:52:55.299Z,26.37
2023-02-11T05:55:23.039Z,28.17
2023-02-11T05:57:50.631Z,30.13
2023-02-11T06:00:19.380Z,26.57
2023-02-11T06:02:49.450Z,24.87
2023-02-11T06:05:17.236Z,28.27
2023-02-11T06:07:44.856Z,30.00
2023-02-11T06:10:15.136Z,25.30
2023-02-11T06:12:42.909Z,25.67
2023-02-11T06:15:10.761Z,25.77
2023-02-11T06:17:38.294Z,30.00
2023-02-11T06:20:10.468Z,27.87
2023-02-11T06:22:38.083Z,28.60
2023-02-11T06:25:08.683Z,24.73
2023-02-11T06:27:36.314Z,25.87
2023-02-11T06:30:05.290Z,25.10
2023-02-11T06:32:43.849Z,27.47
2023-02-11T06:35:14.358Z,38.97
2023-02-11T06:37:42.333Z,43.50
2023-02-11T06:40:11.897Z,35.00
2023-02-11T06:42:39.944Z,35.30
2023-02-11T06:45:09.298Z,29.37
2023-02-11T06:47:37.084Z,25.23
2023-02-11T06:50:05.758Z,30.17
2023-02-11T06:52:38.949Z,31.40
2023-02-11T06:55:07.695Z,29.63
2023-02-11T06:57:35.263Z,27.60
2023-02-11T07:00:02.979Z,28.90
2023-02-11T07:02:31.735Z,27.47
2023-02-11T07:04:59.322Z,29.70
2023-02-11T07:07:31.284Z,31.83
2023-02-11T07:10:03.382Z,25.20
2023-02-11T07:12:31.134Z,31.87
2023-02-11T07:14:58.929Z,26.67
2023-02-11T07:17:27.593Z,25.33
2023-02-11T07:19:55.239Z,26.13
2023-02-11T07:22:23.863Z,25.20
2023-02-11T07:24:54.568Z,26.20
2023-02-11T07:27:26.258Z,26.17
2023-02-11T07:29:54.187Z,33.47
2023-02-11T07:32:21.870Z,26.07
2023-02-11T07:34:49.945Z,26.63
2023-02-11T07:37:17.889Z,23.40
2023-02-11T07:39:45.777Z,24.97
2023-02-11T07:42:13.986Z,25.40
2023-02-11T07:44:42.977Z,24.83
2023-02-11T07:47:10.616Z,25.93
2023-02-11T07:49:38.344Z,24.27
2023-02-11T07:52:06.290Z,24.73
2023-02-11T07:54:36.517Z,25.97
2023-02-11T07:57:04.136Z,25.33
2023-02-11T07:59:31.869Z,23.63
2023-02-11T08:02:11.524Z,23.70
2023-02-11T08:10:02.854Z,26.20
2023-02-11T08:12:31.161Z,27.27
2023-02-11T08:14:58.792Z,24.20
2023-02-11T08:17:28.030Z,25.50
2023-02-11T08:19:55.667Z,29.30
2023-02-11T08:22:23.320Z,22.70
2023-02-11T08:24:52.469Z,28.53
2023-02-11T08:27:20.424Z,29.63
2023-02-11T08:29:48.287Z,25.60
2023-02-11T08:32:15.961Z,23.67
2023-02-11T08:34:44.892Z,27.90
2023-02-11T08:37:12.593Z,25.70
2023-02-11T08:39:40.256Z,21.93
2023-02-11T08:42:07.913Z,24.33
2023-02-11T08:44:35.469Z,26.53
2023-02-11T08:47:03.022Z,27.40
2023-02-11T08:49:32.415Z,24.10
2023-02-11T08:52:04.171Z,22.47
2023-02-11T08:54:32.656Z,27.40
2023-02-11T08:57:04.771Z,25.30
2023-02-11T08:59:32.511Z,26.63
2023-02-11T09:02:00.119Z,25.53
2023-02-11T09:04:28.823Z,25.10
2023-02-11T09:06:56.570Z,25.53
2023-02-11T09:09:28.197Z,26.57
2023-02-11T09:11:58.319Z,24.13
2023-02-11T09:14:26.041Z,27.17
2023-02-11T09:16:54.165Z,28.00
2023-02-11T09:19:23.033Z,26.30
2023-02-11T09:21:50.744Z,23.97
2023-02-11T09:24:18.531Z,25.70
2023-02-11T09:26:50.690Z,26.97
2023-02-11T09:29:18.286Z,28.40
2023-02-11T09:31:46.079Z,25.87
2023-02-11T09:34:15.389Z,26.27
2023-02-11T09:36:43.059Z,24.33
2023-02-11T09:39:13.971Z,28.40
2023-02-11T09:42:26.180Z,25.87
2023-02-11T09:44:55.258Z,21.43
2023-02-11T09:47:31.152Z,25.70
2023-02-11T09:50:04.502Z,30.37
2023-02-11T09:52:38.455Z,30.00
2023-02-11T09:55:18.720Z,23.67
2023-02-11T09:57:48.069Z,26.10
2023-02-11T10:00:25.516Z,27.37
2023-02-11T10:03:17.724Z,26.13
2023-02-11T10:06:03.625Z,26.87
2023-02-11T10:08:44.926Z,25.00
2023-02-11T10:11:31.228Z,27.00
2023-02-11T10:14:20.530Z,23.77
2023-02-11T10:16:58.722Z,26.77
2023-02-11T10:19:38.668Z,28.40
2023-02-11T10:22:14.419Z,23.77
2023-02-11T10:24:44.721Z,29.20
2023-02-11T10:27:19.305Z,28.03
2023-02-11T10:29:55.165Z,23.57
2023-02-11T10:32:32.876Z,28.47
2023-02-11T10:35:04.788Z,30.07
2023-02-11T10:37:32.613Z,30.03
2023-02-11T10:40:01.522Z,27.13
2023-02-11T10:42:30.456Z,32.60
2023-02-11T10:45:04.291Z,28.27
2023-02-11T10:47:38.126Z,24.80
2023-02-11T10:50:19.912Z,36.53
2023-02-11T10:52:47.497Z,26.23
2023-02-11T10:55:18.077Z,29.60
2023-02-11T10:57:53.937Z,27.97
2023-02-11T11:00:37.122Z,23.37
2023-02-11T11:03:07.424Z,23.67
2023-02-11T11:05:38.212Z,25.90
2023-02-11T11:08:08.700Z,30.53
2023-02-11T11:10:47.534Z,27.27
2023-02-11T11:13:30.630Z,30.37
2023-02-11T11:16:20.777Z,27.97
2023-02-11T11:18:50.685Z,30.13
2023-02-11T11:21:22.530Z,28.07
2023-02-11T11:24:02.143Z,29.00
2023-02-11T11:26:41.205Z,26.57
2023-02-11T11:29:15.834Z,27.80
2023-02-11T11:31:52.524Z,29.10
2023-02-11T11:34:24.885Z,27.70
2023-02-11T11:36:52.889Z,28.60
2023-02-11T11:39:27.370Z,24.47
2023-02-11T11:41:58.510Z,28.60
2023-02-11T11:44:34.434Z,31.20
2023-02-11T11:47:30.296Z,32.87
2023-02-11T11:50:15.225Z,29.80
2023-02-11T11:52:52.183Z,28.67
2023-02-11T11:55:23.756Z,27.23
2023-02-11T11:57:51.730Z,31.70
2023-02-11T12:00:23.374Z,27.07
2023-02-11T12:03:32.839Z,31.47
2023-02-11T12:06:34.378Z,29.20
2023-02-11T12:09:30.708Z,27.57
2023-02-11T12:12:20.748Z,27.60
2023-02-11T12:14:59.906Z,24.83
2023-02-11T12:17:43.436Z,26.93
2023-02-11T12:20:33.884Z,26.53
2023-02-11T12:23:17.136Z,25.17
2023-02-11T12:25:52.268Z,23.37
2023-02-11T12:28:34.699Z,25.10
2023-02-11T12:31:15.190Z,28.83
2023-02-11T12:34:02.573Z,26.70
2023-02-11T12:36:46.767Z,26.33
2023-02-11T12:39:28.083Z,25.07
2023-02-11T12:42:28.656Z,29.47
2023-02-11T12:45:10.253Z,28.60
2023-02-11T12:47:49.710Z,26.47
2023-02-11T12:50:28.758Z,24.33
2023-02-11T12:53:15.064Z,29.13
2023-02-11T12:55:52.239Z,29.33
2023-02-11T12:58:35.529Z,40.50
2023-02-11T13:01:20.417Z,26.20
2023-02-11T13:03:55.707Z,26.10
2023-02-11T13:06:30.580Z,25.90
2023-02-11T13:09:03.864Z,30.20
2023-02-11T13:11:40.806Z,26.57
2023-02-11T13:14:17.184Z,22.20
2023-02-11T13:16:47.431Z,21.53
2023-02-11T13:19:25.103Z,22.23
2023-02-11T13:22:04.031Z,22.43
2023-02-11T13:24:42.691Z,21.93
2023-02-11T13:27:23.564Z,27.53
2023-02-11T13:30:14.736Z,20.13
2023-02-11T13:33:17.682Z,21.13
2023-02-11T13:35:49.658Z,23.83
2023-02-11T13:38:23.555Z,23.00
2023-02-11T13:41:06.840Z,22.73
2023-02-11T13:43:36.708Z,18.73
2023-02-11T13:46:06.562Z,19.97
2023-02-11T13:48:38.064Z,21.53
2023-02-11T13:51:08.742Z,22.70
2023-02-11T13:53:47.733Z,20.03
2023-02-11T13:56:30.438Z,20.53
2023-02-11T13:59:05.784Z,18.23
2023-02-11T14:02:15.982Z,18.47
2023-02-11T14:05:38.373Z,22.37
2023-02-11T14:08:42.162Z,21.20
2023-02-11T14:11:36.960Z,18.47
2023-02-11T14:14:18.586Z,20.10
2023-02-11T14:17:31.484Z,19.17
2023-02-11T14:20:00.395Z,19.40
2023-02-11T14:22:30.507Z,19.47
2023-02-11T14:25:01.426Z,23.33
2023-02-11T14:27:45.464Z,21.87
2023-02-11T14:30:30.190Z,20.40
2023-02-11T14:33:23.752Z,24.83
2023-02-11T14:36:02.184Z,20.67
2023-02-11T14:38:42.019Z,19.53
2023-02-11T14:41:17.195Z,21.47
2023-02-11T14:43:50.954Z,21.43
2023-02-11T14:46:21.888Z,24.60
2023-02-11T14:48:52.414Z,20.50
2023-02-11T14:51:23.208Z,17.57
2023-02-11T14:53:53.922Z,21.53
2023-02-11T14:56:24.639Z,19.47
2023-02-11T14:58:52.710Z,18.87
2023-02-11T15:01:28.983Z,22.27
2023-02-11T15:03:59.034Z,16.87
2023-02-11T15:06:29.866Z,21.23
2023-02-11T15:09:04.200Z,24.83
2023-02-11T15:11:42.145Z,17.37
2023-02-11T15:14:15.595Z,18.80
2023-02-11T15:16:54.028Z,17.80
2023-02-11T15:22:08.298Z,22.77
2023-02-11T15:24:36.429Z,18.40
2023-02-11T15:27:23.513Z,20.27
2023-02-11T15:30:03.415Z,19.63
2023-02-11T15:32:31.501Z,21.90
2023-02-11T15:35:05.279Z,18.90
2023-02-11T15:37:35.424Z,18.77
2023-02-11T15:40:19.055Z,23.80
2023-02-11T15:42:58.530Z,16.13
2023-02-11T15:45:52.743Z,15.70
2023-02-11T15:48:45.012Z,14.80
2023-02-11T15:51:40.285Z,15.20
2023-02-11T15:54:21.871Z,15.93
2023-02-11T15:56:56.306Z,18.63
2023-02-11T15:59:35.367Z,20.10
2023-02-11T16:02:12.392Z,16.20
2023-02-11T16:04:40.080Z,15.20
2023-02-11T16:07:08.339Z,16.40
2023-02-11T16:09:38.293Z,13.30
2023-02-11T16:12:29.160Z,17.30
2023-02-11T16:14:59.812Z,13.20
2023-02-11T16:20:25.728Z,17.27
2023-02-11T16:22:53.920Z,18.33
2023-02-11T16:25:28.111Z,19.07
2023-02-11T16:27:56.706Z,17.07
2023-02-11T16:30:31.807Z,15.20
2023-02-11T16:33:04.059Z,21.80
2023-02-11T16:35:39.771Z,15.67
2023-02-11T16:38:20.506Z,19.67
2023-02-11T16:40:51.350Z,19.83
2023-02-11T16:43:23.371Z,17.17
2023-02-11T16:45:52.509Z,18.93
2023-02-11T16:48:24.034Z,14.37
2023-02-11T16:50:53.642Z,22.37
2023-02-11T16:53:24.684Z,18.63
2023-02-11T16:55:54.953Z,14.37
2023-02-11T16:58:25.546Z,18.07
2023-02-11T17:01:02.537Z,14.53
2023-02-11T17:03:43.550Z,17.10
2023-02-11T17:06:13.939Z,15.07
2023-02-11T17:08:43.008Z,16.67
2023-02-11T17:11:16.714Z,31.63
2023-02-11T17:13:44.911Z,18.97
2023-02-11T17:16:24.953Z,16.50
2023-02-11T17:18:53.419Z,17.97
2023-02-11T17:21:27.640Z,23.93
2023-02-11T17:23:59.545Z,21.23
2023-02-11T17:26:34.844Z,22.17
2023-02-11T17:29:08.190Z,20.30
2023-02-11T17:31:41.385Z,21.83
2023-02-11T17:34:09.786Z,22.20
2023-02-11T17:36:37.379Z,18.77
2023-02-11T17:39:08.266Z,22.50
2023-02-11T17:41:38.794Z,20.10
2023-02-11T17:44:09.013Z,26.43
2023-02-11T17:46:36.949Z,28.17
2023-02-11T17:49:17.209Z,24.33
2023-02-11T17:51:47.209Z,19.27
2023-02-11T17:54:23.761Z,18.40
2023-02-11T17:56:56.343Z,25.20
2023-02-11T17:59:25.968Z,25.00
2023-02-11T18:01:53.942Z,27.10
2023-02-11T18:04:23.834Z,26.50
2023-02-11T18:06:54.824Z,25.00
2023-02-11T18:09:23.490Z,21.67
2023-02-11T18:11:56.813Z,25.60
2023-02-11T18:14:25.762Z,27.20
2023-02-11T18:16:54.496Z,29.97
2023-02-11T18:19:24.742Z,24.07
2023-02-11T18:21:52.742Z,26.00
2023-02-11T18:24:33.674Z,24.00
2023-02-11T18:27:03.058Z,23.77
2023-02-11T18:29:33.196Z,21.70
2023-02-11T18:32:10.861Z,23.73
2023-02-11T18:34:40.956Z,23.67
2023-02-11T18:37:09.101Z,27.37
2023-02-11T18:39:42.262Z,25.20
2023-02-11T18:42:16.937Z,25.07
2023-02-11T18:44:46.300Z,23.27
2023-02-11T18:47:16.799Z,28.83
2023-02-11T18:49:46.161Z,25.17
2023-02-11T18:52:23.344Z,26.33
2023-02-11T18:54:54.856Z,23.03
2023-02-11T18:57:24.810Z,22.57
2023-02-11T18:59:52.769Z,24.13
2023-02-11T19:02:24.399Z,19.83
2023-02-11T19:04:53.735Z,23.73
2023-02-11T19:07:25.273Z,22.97
2023-02-11T19:09:55.745Z,27.53
2023-02-11T19:12:25.179Z,22.97
2023-02-11T19:14:53.035Z,22.80
2023-02-11T19:17:20.606Z,20.80
2023-02-11T19:20:05.906Z,21.97
2023-02-11T19:22:39.874Z,25.60
2023-02-11T19:25:09.296Z,22.40
2023-02-11T19:27:47.748Z,22.47
2023-02-11T19:30:18.756Z,24.07
2023-02-11T19:32:56.794Z,21.73
2023-02-11T19:35:33.248Z,22.90
2023-02-11T19:38:03.450Z,28.27
2023-02-11T19:40:36.569Z,27.47
2023-02-11T19:43:05.855Z,30.30
2023-02-11T19:45:33.827Z,24.30
2023-02-11T19:48:04.348Z,24.70
2023-02-11T19:50:33.425Z,25.30
2023-02-11T19:53:05.699Z,26.23
2023-02-11T19:55:38.434Z,23.67
2023-02-11T19:58:07.546Z,20.90
2023-02-11T20:00:35.088Z,23.23
2023-02-11T20:03:03.340Z,20.33
2023-02-11T20:05:31.455Z,18.60
2023-02-11T20:08:01.433Z,23.10
2023-02-11T20:10:29.316Z,19.40
2023-02-11T20:12:56.867Z,23.20
2023-02-11T20:15:32.031Z,20.17
2023-02-11T20:18:09.291Z,21.90
2023-02-11T20:20:39.484Z,22.90
2023-02-11T20:23:07.945Z,27.37
2023-02-11T20:25:47.031Z,27.30
2023-02-11T20:28:18.320Z,28.03
2023-02-11T20:30:56.776Z,24.50
2023-02-11T20:33:26.340Z,21.30
2023-02-11T20:36:14.424Z,25.30
2023-02-11T20:38:47.946Z,28.47
2023-02-11T20:41:20.871Z,22.37
2023-02-11T20:44:00.636Z,22.23
2023-02-11T20:46:35.494Z,26.07
2023-02-11T20:49:05.080Z,22.10
2023-02-11T20:51:36.870Z,33.37
2023-02-11T20:54:08.029Z,20.00
2023-02-11T20:56:39.612Z,21.23
2023-02-11T20:59:10.277Z,25.97
2023-02-11T21:01:41.988Z,20.40
2023-02-11T21:04:21.635Z,24.57
2023-02-11T21:06:52.290Z,16.23
2023-02-11T21:09:25.787Z,18.90
2023-02-11T21:12:02.409Z,20.70
2023-02-11T21:14:30.558Z,22.50
2023-02-11T21:17:07.420Z,17.50
2023-02-11T21:19:36.019Z,25.57
2023-02-11T21:22:07.952Z,24.97
2023-02-11T21:24:36.844Z,23.97
2023-02-11T21:27:06.032Z,21.07
2023-02-11T21:29:45.752Z,24.60
2023-02-11T21:32:28.370Z,30.57
2023-02-11T21:35:01.855Z,21.70
2023-02-11T21:37:30.329Z,20.73
2023-02-11T21:40:00.807Z,21.63
2023-02-11T21:42:29.583Z,20.87
2023-02-11T21:47:51.024Z,20.77
2023-02-11T21:50:29.167Z,19.67
2023-02-11T21:52:58.599Z,19.60
2023-02-11T21:55:28.256Z,20.07
2023-02-11T21:57:56.379Z,19.63
2023-02-11T22:00:37.298Z,24.97
2023-02-11T22:03:16.521Z,23.43
2023-02-11T22:05:44.615Z,20.90
2023-02-11T22:08:17.459Z,19.20
2023-02-11T22:10:46.161Z,23.27
2023-02-11T22:13:14.457Z,23.20
2023-02-11T22:15:42.427Z,22.43
2023-02-11T22:18:17.978Z,20.77
2023-02-11T22:20:47.440Z,21.70
2023-02-11T22:23:15.573Z,24.43
2023-02-11T22:25:46.724Z,23.43
2023-02-11T22:28:22.812Z,26.93
2023-02-11T22:30:55.383Z,22.70
2023-02-11T22:33:56.549Z,20.80
2023-02-11T22:36:46.619Z,23.33
2023-02-11T22:42:28.093Z,24.90
2023-02-11T22:44:56.043Z,25.63
2023-02-11T22:47:23.576Z,24.17
2023-02-11T22:49:53.970Z,27.60
2023-02-11T22:52:22.607Z,22.13
2023-02-11T22:54:55.559Z,26.50
2023-02-11T22:57:24.555Z,22.70
2023-02-11T22:59:53.078Z,31.23
2023-02-11T23:02:21.222Z,22.03
2023-02-11T23:04:50.011Z,22.90
2023-02-11T23:07:17.698Z,23.77
2023-02-11T23:09:45.404Z,23.70
2023-02-11T23:12:12.894Z,25.13
2023-02-11T23:14:42.608Z,22.53
2023-02-11T23:17:10.239Z,22.33
2023-02-11T23:19:38.073Z,23.07
2023-02-11T23:22:05.568Z,24.50
2023-02-11T23:24:33.147Z,23.23
2023-02-11T23:27:00.820Z,20.80
2023-02-11T23:29:28.460Z,22.33
2023-02-11T23:31:59.007Z,23.10
2023-02-11T23:34:26.783Z,26.07
2023-02-11T23:36:54.747Z,22.50
2023-02-11T23:39:22.398Z,21.57
2023-02-11T23:41:52.692Z,22.63
2023-02-11T23:44:20.301Z,26.43
2023-02-11T23:46:48.648Z,22.70
2023-02-11T23:49:17.499Z,27.40
2023-02-11T23:51:45.136Z,26.93
2023-02-11T23:54:15.541Z,20.67
2023-02-11T23:56:43.594Z,24.83
2023-02-11T23:59:11.558Z,25.67
